sensor_id;sensor_type;location;lat;lon;timestamp;temperature;humidity
33109;HTU21D;19481;51.118;6.940;2023-12-20T00:03:58;8.35;80.52
33109;HTU21D;19481;51.118;6.940;2023-12-20T00:09:01;8.34;81.53
33109;HTU21D;19481;51.118;6.940;2023-12-20T00:14:03;8.22;81.28
33109;HTU21D;19481;51.118;6.940;2023-12-20T00:19:05;8.05;80.52
33109;HTU21D;19481;51.118;6.940;2023-12-20T00:24:08;7.99;80.13
33109;HTU21D;19481;51.118;6.940;2023-12-20T00:29:10;7.96;79.81
33109;HTU21D;19481;51.118;6.940;2023-12-20T00:34:11;7.91;79.46
33109;HTU21D;19481;51.118;6.940;2023-12-20T00:39:14;7.91;79.50
33109;HTU21D;19481;51.118;6.940;2023-12-20T00:44:16;7.87;79.36
33109;HTU21D;19481;51.118;6.940;2023-12-20T00:49:17;7.84;79.28
33109;HTU21D;19481;51.118;6.940;2023-12-20T00:54:20;7.78;79.05
33109;HTU21D;19481;51.118;6.940;2023-12-20T00:59:22;7.72;79.17
33109;HTU21D;19481;51.118;6.940;2023-12-20T01:04:23;7.57;79.12
33109;HTU21D;19481;51.118;6.940;2023-12-20T01:09:26;7.41;79.06
33109;HTU21D;19481;51.118;6.940;2023-12-20T01:14:28;7.38;79.11
33109;HTU21D;19481;51.118;6.940;2023-12-20T01:19:30;7.35;79.13
33109;HTU21D;19481;51.118;6.940;2023-12-20T01:24:32;7.44;79.83
33109;HTU21D;19481;51.118;6.940;2023-12-20T01:29:34;7.46;79.48
33109;HTU21D;19481;51.118;6.940;2023-12-20T01:34:36;7.47;79.17
33109;HTU21D;19481;51.118;6.940;2023-12-20T01:39:39;7.45;79.55
33109;HTU21D;19481;51.118;6.940;2023-12-20T01:44:40;7.45;79.72
33109;HTU21D;19481;51.118;6.940;2023-12-20T01:49:42;7.46;79.58
33109;HTU21D;19481;51.118;6.940;2023-12-20T01:54:45;7.47;79.21
33109;HTU21D;19481;51.118;6.940;2023-12-20T01:59:48;7.46;78.46
33109;HTU21D;19481;51.118;6.940;2023-12-20T02:04:50;7.43;78.24
33109;HTU21D;19481;51.118;6.940;2023-12-20T02:09:53;7.31;77.98
33109;HTU21D;19481;51.118;6.940;2023-12-20T02:14:55;7.15;77.83
33109;HTU21D;19481;51.118;6.940;2023-12-20T02:19:56;6.95;77.71
33109;HTU21D;19481;51.118;6.940;2023-12-20T02:24:59;6.76;78.24
33109;HTU21D;19481;51.118;6.940;2023-12-20T02:30:01;6.71;78.40
33109;HTU21D;19481;51.118;6.940;2023-12-20T02:35:04;6.64;78.27
33109;HTU21D;19481;51.118;6.940;2023-12-20T02:40:07;6.51;78.24
33109;HTU21D;19481;51.118;6.940;2023-12-20T02:45:09;6.43;78.40
33109;HTU21D;19481;51.118;6.940;2023-12-20T02:50:11;6.50;78.49
33109;HTU21D;19481;51.118;6.940;2023-12-20T02:55:14;6.50;78.61
33109;HTU21D;19481;51.118;6.940;2023-12-20T03:00:16;6.54;78.65
33109;HTU21D;19481;51.118;6.940;2023-12-20T03:05:17;6.54;79.04
33109;HTU21D;19481;51.118;6.940;2023-12-20T03:10:20;6.58;78.51
33109;HTU21D;19481;51.118;6.940;2023-12-20T03:15:22;6.59;78.54
33109;HTU21D;19481;51.118;6.940;2023-12-20T03:20:23;6.63;78.34
33109;HTU21D;19481;51.118;6.940;2023-12-20T03:25:27;6.65;78.35
33109;HTU21D;19481;51.118;6.940;2023-12-20T03:30:29;6.68;78.18
33109;HTU21D;19481;51.118;6.940;2023-12-20T03:35:30;6.63;78.26
33109;HTU21D;19481;51.118;6.940;2023-12-20T03:40:33;6.63;77.89
33109;HTU21D;19481;51.118;6.940;2023-12-20T03:45:35;6.54;77.70
33109;HTU21D;19481;51.118;6.940;2023-12-20T03:50:36;6.52;77.94
33109;HTU21D;19481;51.118;6.940;2023-12-20T03:55:39;6.51;77.86
33109;HTU21D;19481;51.118;6.940;2023-12-20T04:00:41;6.38;77.75
33109;HTU21D;19481;51.118;6.940;2023-12-20T04:05:43;6.36;77.92
33109;HTU21D;19481;51.118;6.940;2023-12-20T04:10:46;6.38;77.79
33109;HTU21D;19481;51.118;6.940;2023-12-20T04:15:47;6.34;77.92
33109;HTU21D;19481;51.118;6.940;2023-12-20T04:20:51;6.37;77.86
33109;HTU21D;19481;51.118;6.940;2023-12-20T04:25:54;6.31;77.85
33109;HTU21D;19481;51.118;6.940;2023-12-20T04:30:56;6.22;78.19
33109;HTU21D;19481;51.118;6.940;2023-12-20T04:35:58;6.16;78.16
33109;HTU21D;19481;51.118;6.940;2023-12-20T04:41:01;6.07;78.45
33109;HTU21D;19481;51.118;6.940;2023-12-20T04:46:03;6.00;78.35
33109;HTU21D;19481;51.118;6.940;2023-12-20T04:51:04;6.01;78.25
33109;HTU21D;19481;51.118;6.940;2023-12-20T04:56:08;6.07;78.35
33109;HTU21D;19481;51.118;6.940;2023-12-20T05:01:09;6.15;78.24
33109;HTU21D;19481;51.118;6.940;2023-12-20T05:06:12;6.21;78.23
33109;HTU21D;19481;51.118;6.940;2023-12-20T05:11:14;6.29;78.01
33109;HTU21D;19481;51.118;6.940;2023-12-20T05:16:16;6.35;77.78
33109;HTU21D;19481;51.118;6.940;2023-12-20T05:21:18;6.35;77.50
33109;HTU21D;19481;51.118;6.940;2023-12-20T05:26:21;6.37;77.24
33109;HTU21D;19481;51.118;6.940;2023-12-20T05:31:23;6.33;77.40
33109;HTU21D;19481;51.118;6.940;2023-12-20T05:36:24;6.30;77.07
33109;HTU21D;19481;51.118;6.940;2023-12-20T05:41:27;6.26;77.18
33109;HTU21D;19481;51.118;6.940;2023-12-20T05:46:29;6.27;77.26
33109;HTU21D;19481;51.118;6.940;2023-12-20T05:51:30;6.28;77.22
33109;HTU21D;19481;51.118;6.940;2023-12-20T05:56:33;6.33;77.11
33109;HTU21D;19481;51.118;6.940;2023-12-20T06:01:35;6.33;77.18
33109;HTU21D;19481;51.118;6.940;2023-12-20T06:06:40;6.37;77.12
33109;HTU21D;19481;51.118;6.940;2023-12-20T06:11:43;6.38;77.26
33109;HTU21D;19481;51.118;6.940;2023-12-20T06:16:45;6.42;77.02
33109;HTU21D;19481;51.118;6.940;2023-12-20T06:21:47;6.50;76.91
33109;HTU21D;19481;51.118;6.940;2023-12-20T06:26:50;6.52;76.65
33109;HTU21D;19481;51.118;6.940;2023-12-20T06:31:51;6.54;76.83
33109;HTU21D;19481;51.118;6.940;2023-12-20T06:36:53;6.59;76.48
33109;HTU21D;19481;51.118;6.940;2023-12-20T06:41:56;6.63;76.34
33109;HTU21D;19481;51.118;6.940;2023-12-20T06:46:57;6.68;76.25
33109;HTU21D;19481;51.118;6.940;2023-12-20T06:51:59;6.72;76.00
33109;HTU21D;19481;51.118;6.940;2023-12-20T06:57:02;6.74;75.76
33109;HTU21D;19481;51.118;6.940;2023-12-20T07:02:05;6.78;75.55
33109;HTU21D;19481;51.118;6.940;2023-12-20T07:07:07;6.80;75.43
33109;HTU21D;19481;51.118;6.940;2023-12-20T07:12:10;6.81;75.38
33109;HTU21D;19481;51.118;6.940;2023-12-20T07:17:11;6.82;75.15
33109;HTU21D;19481;51.118;6.940;2023-12-20T07:22:15;6.81;75.18
33109;HTU21D;19481;51.118;6.940;2023-12-20T07:27:18;6.86;75.07
33109;HTU21D;19481;51.118;6.940;2023-12-20T07:32:19;6.87;74.92
33109;HTU21D;19481;51.118;6.940;2023-12-20T07:37:21;6.89;74.66
33109;HTU21D;19481;51.118;6.940;2023-12-20T07:42:24;6.90;74.65
33109;HTU21D;19481;51.118;6.940;2023-12-20T07:47:25;6.91;74.46
33109;HTU21D;19481;51.118;6.940;2023-12-20T07:52:27;6.95;74.57
33109;HTU21D;19481;51.118;6.940;2023-12-20T07:57:30;6.96;73.93
33109;HTU21D;19481;51.118;6.940;2023-12-20T08:02:32;6.96;74.07
33109;HTU21D;19481;51.118;6.940;2023-12-20T08:07:33;6.98;74.00
33109;HTU21D;19481;51.118;6.940;2023-12-20T08:12:36;6.98;73.92
33109;HTU21D;19481;51.118;6.940;2023-12-20T08:17:40;6.98;73.86
33109;HTU21D;19481;51.118;6.940;2023-12-20T08:22:41;6.98;73.87
33109;HTU21D;19481;51.118;6.940;2023-12-20T08:27:44;6.95;73.64
33109;HTU21D;19481;51.118;6.940;2023-12-20T08:32:46;6.96;73.96
33109;HTU21D;19481;51.118;6.940;2023-12-20T08:37:47;6.93;73.90
33109;HTU21D;19481;51.118;6.940;2023-12-20T08:42:50;6.94;73.65
33109;HTU21D;19481;51.118;6.940;2023-12-20T08:47:52;6.95;73.89
33109;HTU21D;19481;51.118;6.940;2023-12-20T08:52:53;6.95;73.57
33109;HTU21D;19481;51.118;6.940;2023-12-20T08:57:57;6.91;73.83
33109;HTU21D;19481;51.118;6.940;2023-12-20T09:02:58;6.98;73.64
33109;HTU21D;19481;51.118;6.940;2023-12-20T09:08:00;7.00;73.47
33109;HTU21D;19481;51.118;6.940;2023-12-20T09:13:03;7.02;73.62
33109;HTU21D;19481;51.118;6.940;2023-12-20T09:18:05;7.05;73.55
33109;HTU21D;19481;51.118;6.940;2023-12-20T09:23:07;7.05;73.22
33109;HTU21D;19481;51.118;6.940;2023-12-20T09:28:10;7.08;73.38
33109;HTU21D;19481;51.118;6.940;2023-12-20T09:33:12;7.15;73.18
33109;HTU21D;19481;51.118;6.940;2023-12-20T09:38:13;7.16;73.15
33109;HTU21D;19481;51.118;6.940;2023-12-20T09:43:19;7.16;72.82
33109;HTU21D;19481;51.118;6.940;2023-12-20T09:48:21;7.20;72.81
33109;HTU21D;19481;51.118;6.940;2023-12-20T09:53:25;7.18;72.59
33109;HTU21D;19481;51.118;6.940;2023-12-20T09:58:30;7.19;72.75
33109;HTU21D;19481;51.118;6.940;2023-12-20T10:03:32;7.22;72.33
33109;HTU21D;19481;51.118;6.940;2023-12-20T10:08:35;7.25;72.41
33109;HTU21D;19481;51.118;6.940;2023-12-20T10:13:40;7.29;72.16
33109;HTU21D;19481;51.118;6.940;2023-12-20T10:18:42;7.33;72.24
33109;HTU21D;19481;51.118;6.940;2023-12-20T10:23:44;7.35;72.22
33109;HTU21D;19481;51.118;6.940;2023-12-20T10:28:50;7.38;72.40
33109;HTU21D;19481;51.118;6.940;2023-12-20T10:33:52;7.38;72.13
33109;HTU21D;19481;51.118;6.940;2023-12-20T10:38:54;7.41;71.91
33109;HTU21D;19481;51.118;6.940;2023-12-20T10:44:00;7.44;71.96
33109;HTU21D;19481;51.118;6.940;2023-12-20T10:49:02;7.43;71.36
33109;HTU21D;19481;51.118;6.940;2023-12-20T10:54:04;7.49;71.87
33109;HTU21D;19481;51.118;6.940;2023-12-20T10:59:09;7.53;71.63
33109;HTU21D;19481;51.118;6.940;2023-12-20T11:04:15;7.57;71.80
33109;HTU21D;19481;51.118;6.940;2023-12-20T11:09:22;7.60;71.26
33109;HTU21D;19481;51.118;6.940;2023-12-20T11:14:29;7.64;70.98
33109;HTU21D;19481;51.118;6.940;2023-12-20T11:19:36;7.68;70.58
33109;HTU21D;19481;51.118;6.940;2023-12-20T11:24:44;7.64;71.28
33109;HTU21D;19481;51.118;6.940;2023-12-20T11:29:51;7.62;71.70
33109;HTU21D;19481;51.118;6.940;2023-12-20T11:34:54;7.59;71.51
33109;HTU21D;19481;51.118;6.940;2023-12-20T11:39:55;7.61;71.75
33109;HTU21D;19481;51.118;6.940;2023-12-20T11:44:59;7.61;72.09
33109;HTU21D;19481;51.118;6.940;2023-12-20T11:50:01;7.61;72.24
33109;HTU21D;19481;51.118;6.940;2023-12-20T11:55:04;7.52;72.38
33109;HTU21D;19481;51.118;6.940;2023-12-20T12:00:08;7.50;72.99
33109;HTU21D;19481;51.118;6.940;2023-12-20T12:05:10;7.44;73.06
33109;HTU21D;19481;51.118;6.940;2023-12-20T12:10:12;7.50;73.22
33109;HTU21D;19481;51.118;6.940;2023-12-20T12:15:15;7.54;73.16
33109;HTU21D;19481;51.118;6.940;2023-12-20T12:20:19;7.62;72.83
33109;HTU21D;19481;51.118;6.940;2023-12-20T12:25:22;7.71;72.30
33109;HTU21D;19481;51.118;6.940;2023-12-20T12:30:25;7.78;72.21
33109;HTU21D;19481;51.118;6.940;2023-12-20T12:35:27;7.75;72.20
33109;HTU21D;19481;51.118;6.940;2023-12-20T12:40:28;7.73;72.34
33109;HTU21D;19481;51.118;6.940;2023-12-20T12:45:31;7.67;72.32
33109;HTU21D;19481;51.118;6.940;2023-12-20T12:50:33;7.67;72.51
33109;HTU21D;19481;51.118;6.940;2023-12-20T12:55:35;7.73;72.54
33109;HTU21D;19481;51.118;6.940;2023-12-20T13:00:38;7.81;71.80
33109;HTU21D;19481;51.118;6.940;2023-12-20T13:05:39;7.94;72.01
33109;HTU21D;19481;51.118;6.940;2023-12-20T13:10:41;8.00;71.90
33109;HTU21D;19481;51.118;6.940;2023-12-20T13:15:44;8.12;72.11
33109;HTU21D;19481;51.118;6.940;2023-12-20T13:20:50;7.97;72.97
33109;HTU21D;19481;51.118;6.940;2023-12-20T13:25:52;7.99;73.45
33109;HTU21D;19481;51.118;6.940;2023-12-20T13:30:55;7.89;74.06
33109;HTU21D;19481;51.118;6.940;2023-12-20T13:35:56;7.86;73.64
33109;HTU21D;19481;51.118;6.940;2023-12-20T13:40:58;7.87;74.05
33109;HTU21D;19481;51.118;6.940;2023-12-20T13:46:02;7.85;73.85
33109;HTU21D;19481;51.118;6.940;2023-12-20T13:51:04;7.82;73.73
33109;HTU21D;19481;51.118;6.940;2023-12-20T13:56:06;7.83;73.70
33109;HTU21D;19481;51.118;6.940;2023-12-20T14:01:09;7.84;74.01
33109;HTU21D;19481;51.118;6.940;2023-12-20T14:06:12;7.81;74.30
33109;HTU21D;19481;51.118;6.940;2023-12-20T14:11:15;7.79;74.22
33109;HTU21D;19481;51.118;6.940;2023-12-20T14:16:18;7.83;74.15
33109;HTU21D;19481;51.118;6.940;2023-12-20T14:21:19;7.85;74.00
33109;HTU21D;19481;51.118;6.940;2023-12-20T14:26:21;7.87;73.75
33109;HTU21D;19481;51.118;6.940;2023-12-20T14:31:24;7.91;73.61
33109;HTU21D;19481;51.118;6.940;2023-12-20T14:36:25;7.91;73.43
33109;HTU21D;19481;51.118;6.940;2023-12-20T14:41:27;7.92;73.53
33109;HTU21D;19481;51.118;6.940;2023-12-20T14:46:30;7.94;73.59
33109;HTU21D;19481;51.118;6.940;2023-12-20T14:51:32;7.94;73.71
33109;HTU21D;19481;51.118;6.940;2023-12-20T14:56:33;7.98;73.65
33109;HTU21D;19481;51.118;6.940;2023-12-20T15:01:36;8.03;73.58
33109;HTU21D;19481;51.118;6.940;2023-12-20T15:06:40;8.05;73.41
33109;HTU21D;19481;51.118;6.940;2023-12-20T15:11:42;8.09;73.41
33109;HTU21D;19481;51.118;6.940;2023-12-20T15:16:46;8.09;73.37
33109;HTU21D;19481;51.118;6.940;2023-12-20T15:21:48;8.09;73.43
33109;HTU21D;19481;51.118;6.940;2023-12-20T15:26:50;8.12;73.51
33109;HTU21D;19481;51.118;6.940;2023-12-20T15:31:53;8.09;73.82
33109;HTU21D;19481;51.118;6.940;2023-12-20T15:36:55;8.13;73.63
33109;HTU21D;19481;51.118;6.940;2023-12-20T15:41:56;8.13;73.67
33109;HTU21D;19481;51.118;6.940;2023-12-20T15:46:59;8.15;73.62
33109;HTU21D;19481;51.118;6.940;2023-12-20T15:52:01;8.20;73.61
33109;HTU21D;19481;51.118;6.940;2023-12-20T15:57:03;8.18;73.38
33109;HTU21D;19481;51.118;6.940;2023-12-20T16:02:06;8.20;73.17
33109;HTU21D;19481;51.118;6.940;2023-12-20T16:07:07;8.22;73.22
33109;HTU21D;19481;51.118;6.940;2023-12-20T16:12:09;8.21;72.96
33109;HTU21D;19481;51.118;6.940;2023-12-20T16:17:12;8.19;73.15
33109;HTU21D;19481;51.118;6.940;2023-12-20T16:22:13;8.17;73.31
33109;HTU21D;19481;51.118;6.940;2023-12-20T16:27:15;8.16;73.28
33109;HTU21D;19481;51.118;6.940;2023-12-20T16:32:18;8.18;73.23
33109;HTU21D;19481;51.118;6.940;2023-12-20T16:37:20;8.18;73.15
33109;HTU21D;19481;51.118;6.940;2023-12-20T16:42:21;8.17;73.24
33109;HTU21D;19481;51.118;6.940;2023-12-20T16:47:24;8.17;73.19
33109;HTU21D;19481;51.118;6.940;2023-12-20T16:52:26;8.21;73.09
33109;HTU21D;19481;51.118;6.940;2023-12-20T16:57:27;8.20;73.09
33109;HTU21D;19481;51.118;6.940;2023-12-20T17:02:30;8.24;73.18
33109;HTU21D;19481;51.118;6.940;2023-12-20T17:07:32;8.26;73.01
33109;HTU21D;19481;51.118;6.940;2023-12-20T17:12:33;8.26;73.16
33109;HTU21D;19481;51.118;6.940;2023-12-20T17:17:36;8.30;73.06
33109;HTU21D;19481;51.118;6.940;2023-12-20T17:22:38;8.29;73.05
33109;HTU21D;19481;51.118;6.940;2023-12-20T17:27:40;8.28;73.06
33109;HTU21D;19481;51.118;6.940;2023-12-20T17:32:43;8.32;73.00
33109;HTU21D;19481;51.118;6.940;2023-12-20T17:37:49;8.36;72.83
33109;HTU21D;19481;51.118;6.940;2023-12-20T17:42:51;8.38;72.75
33109;HTU21D;19481;51.118;6.940;2023-12-20T17:47:55;8.43;72.63
33109;HTU21D;19481;51.118;6.940;2023-12-20T17:52:57;8.44;72.64
33109;HTU21D;19481;51.118;6.940;2023-12-20T17:58:00;8.49;72.46
33109;HTU21D;19481;51.118;6.940;2023-12-20T18:03:04;8.51;72.38
33109;HTU21D;19481;51.118;6.940;2023-12-20T18:08:06;8.56;71.97
33109;HTU21D;19481;51.118;6.940;2023-12-20T18:13:08;8.56;72.13
33109;HTU21D;19481;51.118;6.940;2023-12-20T18:18:10;8.62;72.26
33109;HTU21D;19481;51.118;6.940;2023-12-20T18:23:12;8.63;72.23
33109;HTU21D;19481;51.118;6.940;2023-12-20T18:28:14;8.68;71.93
33109;HTU21D;19481;51.118;6.940;2023-12-20T18:33:17;8.75;71.87
33109;HTU21D;19481;51.118;6.940;2023-12-20T18:38:18;8.80;71.39
33109;HTU21D;19481;51.118;6.940;2023-12-20T18:43:20;8.82;71.63
33109;HTU21D;19481;51.118;6.940;2023-12-20T18:48:23;8.86;71.68
33109;HTU21D;19481;51.118;6.940;2023-12-20T18:53:25;8.88;71.76
33109;HTU21D;19481;51.118;6.940;2023-12-20T18:58:27;8.92;71.52
33109;HTU21D;19481;51.118;6.940;2023-12-20T19:03:32;8.92;71.77
33109;HTU21D;19481;51.118;6.940;2023-12-20T19:08:34;8.95;71.62
33109;HTU21D;19481;51.118;6.940;2023-12-20T19:13:36;8.97;71.77
33109;HTU21D;19481;51.118;6.940;2023-12-20T19:18:39;9.00;71.84
33109;HTU21D;19481;51.118;6.940;2023-12-20T19:23:41;9.03;71.64
33109;HTU21D;19481;51.118;6.940;2023-12-20T19:28:44;9.04;71.73
33109;HTU21D;19481;51.118;6.940;2023-12-20T19:33:47;9.07;71.98
33109;HTU21D;19481;51.118;6.940;2023-12-20T19:38:52;9.08;72.06
33109;HTU21D;19481;51.118;6.940;2023-12-20T19:43:54;9.08;72.08
33109;HTU21D;19481;51.118;6.940;2023-12-20T19:48:59;9.10;72.25
33109;HTU21D;19481;51.118;6.940;2023-12-20T19:54:03;9.12;72.10
33109;HTU21D;19481;51.118;6.940;2023-12-20T19:59:05;9.11;72.29
33109;HTU21D;19481;51.118;6.940;2023-12-20T20:04:09;9.12;72.35
33109;HTU21D;19481;51.118;6.940;2023-12-20T20:09:10;9.14;72.26
33109;HTU21D;19481;51.118;6.940;2023-12-20T20:14:12;9.16;72.56
33109;HTU21D;19481;51.118;6.940;2023-12-20T20:19:15;9.18;72.61
33109;HTU21D;19481;51.118;6.940;2023-12-20T20:24:17;9.18;72.71
33109;HTU21D;19481;51.118;6.940;2023-12-20T20:29:19;9.21;72.70
33109;HTU21D;19481;51.118;6.940;2023-12-20T20:34:22;9.20;72.96
33109;HTU21D;19481;51.118;6.940;2023-12-20T20:39:27;9.11;73.80
33109;HTU21D;19481;51.118;6.940;2023-12-20T20:44:29;9.08;74.08
33109;HTU21D;19481;51.118;6.940;2023-12-20T20:49:32;9.05;74.12
33109;HTU21D;19481;51.118;6.940;2023-12-20T20:54:34;9.07;74.49
33109;HTU21D;19481;51.118;6.940;2023-12-20T20:59:35;9.16;73.73
33109;HTU21D;19481;51.118;6.940;2023-12-20T21:04:39;9.22;73.27
33109;HTU21D;19481;51.118;6.940;2023-12-20T21:09:41;9.26;73.00
33109;HTU21D;19481;51.118;6.940;2023-12-20T21:14:43;9.27;73.19
33109;HTU21D;19481;51.118;6.940;2023-12-20T21:19:45;9.17;74.13
33109;HTU21D;19481;51.118;6.940;2023-12-20T21:24:47;9.08;75.27
33109;HTU21D;19481;51.118;6.940;2023-12-20T21:29:49;8.97;75.92
33109;HTU21D;19481;51.118;6.940;2023-12-20T21:34:52;8.93;76.53
33109;HTU21D;19481;51.118;6.940;2023-12-20T21:39:53;8.91;76.59
33109;HTU21D;19481;51.118;6.940;2023-12-20T21:44:55;8.90;76.98
33109;HTU21D;19481;51.118;6.940;2023-12-20T21:49:58;8.85;77.36
33109;HTU21D;19481;51.118;6.940;2023-12-20T21:55:00;8.85;77.12
33109;HTU21D;19481;51.118;6.940;2023-12-20T22:00:03;8.83;77.21
33109;HTU21D;19481;51.118;6.940;2023-12-20T22:05:06;8.80;77.69
33109;HTU21D;19481;51.118;6.940;2023-12-20T22:10:08;8.78;78.20
33109;HTU21D;19481;51.118;6.940;2023-12-20T22:15:11;8.76;78.68
33109;HTU21D;19481;51.118;6.940;2023-12-20T22:20:14;8.75;78.61
33109;HTU21D;19481;51.118;6.940;2023-12-20T22:25:16;8.73;79.13
33109;HTU21D;19481;51.118;6.940;2023-12-20T22:30:17;8.75;79.59
33109;HTU21D;19481;51.118;6.940;2023-12-20T22:35:20;8.75;79.56
33109;HTU21D;19481;51.118;6.940;2023-12-20T22:40:22;8.73;80.07
33109;HTU21D;19481;51.118;6.940;2023-12-20T22:45:23;8.77;79.69
33109;HTU21D;19481;51.118;6.940;2023-12-20T22:50:27;8.78;80.01
33109;HTU21D;19481;51.118;6.940;2023-12-20T22:55:28;8.80;80.30
33109;HTU21D;19481;51.118;6.940;2023-12-20T23:00:30;8.79;80.14
33109;HTU21D;19481;51.118;6.940;2023-12-20T23:05:33;8.85;80.00
33109;HTU21D;19481;51.118;6.940;2023-12-20T23:10:35;8.88;79.87
33109;HTU21D;19481;51.118;6.940;2023-12-20T23:15:37;8.90;79.87
33109;HTU21D;19481;51.118;6.940;2023-12-20T23:20:40;8.92;79.97
33109;HTU21D;19481;51.118;6.940;2023-12-20T23:25:43;8.93;80.15
33109;HTU21D;19481;51.118;6.940;2023-12-20T23:30:45;8.96;79.83
33109;HTU21D;19481;51.118;6.940;2023-12-20T23:35:48;8.98;79.71
33109;HTU21D;19481;51.118;6.940;2023-12-20T23:40:50;9.00;79.53
33109;HTU21D;19481;51.118;6.940;2023-12-20T23:45:51;9.03;79.46
33109;HTU21D;19481;51.118;6.940;2023-12-20T23:50:54;9.04;79.55
33109;HTU21D;19481;51.118;6.940;2023-12-20T23:55:56;9.05;79.55
